In Rescue
 
Open Full Screen Window  High Contrast Mode
Wind Gusting 17 knots
12
September 23, 2021 12:01 PM CDT
Weather Information
Wind Direction
  170 °
Wind Speed
  12 kt (14 mph)
Wind Gust
  17 kt (20 mph)
Altimeter
30.06 in
Visibility
10 SM
Temperature
21° C
70° F
Dewpoint
01° C
34° F
Humidity
27%
1hr Rain Fall
00.00 in.
24hr Rain Fall
00.00 in.
Sky Condition
Clear
VFR

METAR KJYG 231701Z AUTO 17012G17KT 10SM CLR 21/01 A3006 RMK AO2 TSNO

FAA Disclaimer: The data displayed is for advisory purposes only and is not to be used for flight planning or operations.